Time;durP1;ratioP1;P1;durP2;ratioP2;P2;SDS_P1;SDS_P2;PMS_P1;PMS_P2;Temp;Humidity;BMP_temperature;BMP_pressure;BME280_temperature;BME280_humidity;BME280_pressure;Samples;Min_cycle;Max_cycle;Signal;HPM_P1;HPM_P2
2022/02/12 00:00:22;;;;;;;8.33;4.43;;;;;;;;;;5129550;27;20015;-77
2022/02/12 00:02:49;;;;;;;9.40;4.00;;;;;;;;;;5128068;27;20023;-75
2022/02/12 00:05:14;;;;;;;8.50;4.97;;;;;;;;;;5130338;27;20023;-81
2022/02/12 00:07:40;;;;;;;8.77;4.73;;;;;;;;;;5129808;27;20054;-80
2022/02/12 00:10:06;;;;;;;8.53;3.70;;;;;;;;;;5131202;27;20050;-77
2022/02/12 00:12:31;;;;;;;8.93;4.53;;;;;;;;;;5131078;28;20494;-77
2022/02/12 00:14:57;;;;;;;7.37;3.87;;;;;;;;;;5130632;27;20091;-78
2022/02/12 00:17:22;;;;;;;8.03;3.70;;;;;;;;;;5130505;28;20362;-80
2022/02/12 00:19:48;;;;;;;7.03;3.80;;;;;;;;;;5130655;28;20037;-79
2022/02/12 00:22:13;;;;;;;9.87;4.07;;;;;;;;;;5128632;28;20031;-78
2022/02/12 00:24:39;;;;;;;8.82;4.63;;;;;;;;;;5128917;28;20027;-78
2022/02/12 00:27:04;;;;;;;6.82;4.43;;;;;;;;;;5130081;28;20374;-77
2022/02/12 00:29:29;;;;;;;8.90;4.20;;;;;;;;;;5128420;28;20079;-80
2022/02/12 00:31:54;;;;;;;12.17;4.87;;;;;;;;;;5129717;27;20413;-78
2022/02/12 00:34:20;;;;;;;9.40;4.30;;;;;;;;;;5128927;27;20438;-77
2022/02/12 00:36:45;;;;;;;7.87;4.23;;;;;;;;;;5111203;27;20031;-77
2022/02/12 00:39:13;;;;;;;8.27;4.30;;;;;;;;;;5125520;28;20397;-78
2022/02/12 00:41:38;;;;;;;8.10;4.53;;;;;;;;;;5130143;28;20106;-79
2022/02/12 00:44:03;;;;;;;10.43;4.87;;;;;;;;;;5129636;28;20555;-80
2022/02/12 00:46:29;;;;;;;9.07;4.60;;;;;;;;;;5111290;28;20034;-78
2022/02/12 00:48:54;;;;;;;8.95;4.95;;;;;;;;;;5129480;28;20080;-79
2022/02/12 00:51:19;;;;;;;10.98;4.45;;;;;;;;;;5111143;28;20534;-79
2022/02/12 00:53:44;;;;;;;13.37;5.10;;;;;;;;;;5129285;28;20097;-79
2022/02/12 00:56:10;;;;;;;10.37;4.43;;;;;;;;;;5129824;28;20023;-78
2022/02/12 00:58:35;;;;;;;8.00;4.90;;;;;;;;;;5128489;28;20026;-78
2022/02/12 01:01:00;;;;;;;9.63;4.47;;;;;;;;;;5129275;28;20033;-77
2022/02/12 01:03:25;;;;;;;9.73;5.03;;;;;;;;;;5128733;28;20046;-78
2022/02/12 01:05:51;;;;;;;8.77;4.47;;;;;;;;;;5130194;28;20023;-79
2022/02/12 01:08:16;;;;;;;8.17;4.67;;;;;;;;;;5110169;28;20043;-77
2022/02/12 01:10:41;;;;;;;9.57;5.27;;;;;;;;;;5132301;27;20049;-78
2022/02/12 01:13:07;;;;;;;9.30;4.87;;;;;;;;;;5133374;27;20042;-78
2022/02/12 01:15:33;;;;;;;10.27;4.93;;;;;;;;;;5134027;27;20434;-78
2022/02/12 01:17:58;;;;;;;9.80;4.97;;;;;;;;;;5133369;27;20015;-78
2022/02/12 01:20:23;;;;;;;9.63;4.73;;;;;;;;;;5133598;27;20519;-77
2022/02/12 01:22:49;;;;;;;8.03;5.10;;;;;;;;;;5131866;27;20073;-78
2022/02/12 01:25:14;;;;;;;8.60;4.50;;;;;;;;;;5133057;27;20469;-78
2022/02/12 01:27:40;;;;;;;10.03;5.00;;;;;;;;;;5130467;27;20101;-79
2022/02/12 01:30:05;;;;;;;12.00;5.27;;;;;;;;;;5130983;27;20098;-79
2022/02/12 01:32:30;;;;;;;12.07;5.20;;;;;;;;;;5132677;27;20031;-79
2022/02/12 01:34:56;;;;;;;10.83;4.90;;;;;;;;;;5136799;27;20023;-79
2022/02/12 01:37:21;;;;;;;10.23;5.13;;;;;;;;;;5135316;27;20035;-79
2022/02/12 01:39:47;;;;;;;9.37;4.80;;;;;;;;;;5134270;27;20022;-77
2022/02/12 01:42:12;;;;;;;8.63;5.00;;;;;;;;;;5133637;27;20015;-79
2022/02/12 01:44:38;;;;;;;10.23;5.43;;;;;;;;;;5133838;27;20365;-79
2022/02/12 01:47:05;;;;;;;7.93;5.23;;;;;;;;;;5132164;27;20473;-79
2022/02/12 01:49:30;;;;;;;7.23;4.70;;;;;;;;;;5130468;27;20031;-79
2022/02/12 01:51:56;;;;;;;8.67;4.80;;;;;;;;;;5133692;27;20322;-78
2022/02/12 01:54:23;;;;;;;8.27;4.70;;;;;;;;;;5133482;27;20023;-79
2022/02/12 01:56:48;;;;;;;8.23;4.90;;;;;;;;;;5136836;27;20027;-77
2022/02/12 01:59:13;;;;;;;9.20;5.10;;;;;;;;;;5137732;27;20098;-78
2022/02/12 02:01:38;;;;;;;8.00;4.93;;;;;;;;;;5128890;27;20458;-77
2022/02/12 02:04:04;;;;;;;10.53;4.93;;;;;;;;;;5132087;27;20080;-78
2022/02/12 02:06:29;;;;;;;9.60;5.37;;;;;;;;;;5131224;27;20468;-77
2022/02/12 02:08:54;;;;;;;10.30;5.40;;;;;;;;;;5132994;27;20561;-79
2022/02/12 02:11:21;;;;;;;9.80;5.27;;;;;;;;;;5132599;27;20030;-77
2022/02/12 02:13:46;;;;;;;12.20;5.70;;;;;;;;;;5127978;27;20057;-77
2022/02/12 02:16:12;;;;;;;11.10;6.30;;;;;;;;;;5132019;27;20064;-77
2022/02/12 02:18:38;;;;;;;12.63;5.90;;;;;;;;;;5131025;27;20023;-80
2022/02/12 02:21:04;;;;;;;10.03;5.30;;;;;;;;;;5131894;27;20027;-78
2022/02/12 02:23:29;;;;;;;14.30;6.70;;;;;;;;;;5132527;27;20023;-77
2022/02/12 02:25:54;;;;;;;12.23;6.33;;;;;;;;;;5131177;27;20376;-77
2022/02/12 02:28:19;;;;;;;12.50;6.53;;;;;;;;;;5132639;27;20050;-77
2022/02/12 02:30:44;;;;;;;11.47;5.60;;;;;;;;;;5134284;27;20019;-76
2022/02/12 02:33:10;;;;;;;11.73;5.80;;;;;;;;;;5133956;27;20023;-77
2022/02/12 02:35:35;;;;;;;9.70;5.73;;;;;;;;;;5133951;27;20068;-77
2022/02/12 02:38:12;;;;;;;15.50;7.03;;;;;;;;;;5130010;27;20015;-78
2022/02/12 02:40:37;;;;;;;12.37;6.50;;;;;;;;;;5131563;27;20024;-77
2022/02/12 02:43:03;;;;;;;12.50;6.27;;;;;;;;;;5131949;27;20488;-77
2022/02/12 02:45:28;;;;;;;10.80;5.80;;;;;;;;;;5131178;27;20563;-77
2022/02/12 02:47:56;;;;;;;15.37;7.07;;;;;;;;;;5132943;27;20040;-78
2022/02/12 02:56:02;;;;;;;13.43;6.80;;;;;;;;;;5130687;27;20034;-78
2022/02/12 02:58:35;;;;;;;15.77;7.63;;;;;;;;;;5125953;27;20023;-77
2022/02/12 03:01:10;;;;;;;13.07;6.97;;;;;;;;;;5131548;27;20104;-77
2022/02/12 03:03:39;;;;;;;14.63;7.40;;;;;;;;;;5127068;27;20470;-78
2022/02/12 03:06:06;;;;;;;12.15;6.50;;;;;;;;;;5130669;27;20030;-78
2022/02/12 03:08:31;;;;;;;13.83;7.10;;;;;;;;;;5129676;27;20076;-78
2022/02/12 03:10:56;;;;;;;15.47;6.97;;;;;;;;;;5129239;27;20064;-79
2022/02/12 03:13:22;;;;;;;11.53;6.67;;;;;;;;;;5129686;27;20027;-77
2022/02/12 03:15:47;;;;;;;14.50;7.73;;;;;;;;;;5130562;27;20522;-77
2022/02/12 03:18:14;;;;;;;12.87;6.47;;;;;;;;;;5110746;27;20501;-77
2022/02/12 03:20:39;;;;;;;12.20;6.83;;;;;;;;;;5131376;27;20026;-77
2022/02/12 03:23:05;;;;;;;11.43;6.90;;;;;;;;;;5130447;27;20477;-77
2022/02/12 03:25:30;;;;;;;11.53;7.33;;;;;;;;;;5130639;27;20019;-77
2022/02/12 03:27:59;;;;;;;11.17;7.07;;;;;;;;;;5111594;27;20041;-77
2022/02/12 03:30:25;;;;;;;15.20;6.70;;;;;;;;;;5131237;27;20022;-77
2022/02/12 03:32:50;;;;;;;12.00;6.33;;;;;;;;;;5130189;27;20035;-77
2022/02/12 03:35:15;;;;;;;9.57;6.37;;;;;;;;;;5131264;27;20728;-77
2022/02/12 03:37:40;;;;;;;13.63;7.13;;;;;;;;;;5129174;27;20023;-78
2022/02/12 03:40:06;;;;;;;10.90;6.90;;;;;;;;;;5126777;27;20023;-76
2022/02/12 03:42:31;;;;;;;10.83;6.70;;;;;;;;;;5130193;27;20419;-78
2022/02/12 03:44:56;;;;;;;14.90;7.00;;;;;;;;;;5131982;27;20169;-76
2022/02/12 03:47:21;;;;;;;9.80;6.50;;;;;;;;;;5114912;27;20378;-78
2022/02/12 03:49:47;;;;;;;10.47;6.43;;;;;;;;;;5132561;27;20455;-78
2022/02/12 03:52:12;;;;;;;16.40;7.10;;;;;;;;;;5124701;27;20015;-77
2022/02/12 03:54:37;;;;;;;10.90;6.40;;;;;;;;;;5110837;27;20496;-77
2022/02/12 03:57:02;;;;;;;11.90;6.20;;;;;;;;;;5130425;27;20022;-76
2022/02/12 03:59:27;;;;;;;12.17;7.20;;;;;;;;;;5111726;27;20033;-76
2022/02/12 04:01:53;;;;;;;9.83;6.27;;;;;;;;;;5129075;27;20025;-77
2022/02/12 04:04:18;;;;;;;13.53;6.50;;;;;;;;;;5123151;28;20068;-79
2022/02/12 04:06:43;;;;;;;15.53;6.57;;;;;;;;;;5111364;28;20031;-79
2022/02/12 04:09:10;;;;;;;11.43;6.50;;;;;;;;;;5111451;28;20039;-77
2022/02/12 04:11:35;;;;;;;11.60;6.50;;;;;;;;;;5111276;28;20099;-76
2022/02/12 04:14:00;;;;;;;12.37;6.73;;;;;;;;;;5129854;28;20031;-77
2022/02/12 04:16:25;;;;;;;11.97;6.63;;;;;;;;;;5111872;28;20466;-77
2022/02/12 04:18:50;;;;;;;11.80;7.00;;;;;;;;;;5130298;28;20027;-76
2022/02/12 04:21:15;;;;;;;12.00;6.70;;;;;;;;;;5130361;27;20011;-75
2022/02/12 04:23:41;;;;;;;11.47;6.23;;;;;;;;;;5129895;28;20042;-76
2022/02/12 04:26:08;;;;;;;11.63;6.40;;;;;;;;;;5130880;27;20045;-78
2022/02/12 04:28:36;;;;;;;10.33;5.97;;;;;;;;;;5130821;27;20480;-78
2022/02/12 04:31:01;;;;;;;10.67;5.93;;;;;;;;;;5138759;28;20022;-77
2022/02/12 04:33:26;;;;;;;11.37;6.60;;;;;;;;;;5125524;27;20019;-78
2022/02/12 04:35:51;;;;;;;10.18;6.52;;;;;;;;;;5127460;28;20435;-78
2022/02/12 04:38:16;;;;;;;11.63;6.70;;;;;;;;;;5130712;27;20031;-77
2022/02/12 04:40:42;;;;;;;13.77;6.73;;;;;;;;;;5129798;27;20018;-77
2022/02/12 04:43:07;;;;;;;9.43;6.10;;;;;;;;;;5130000;27;20015;-77
2022/02/12 04:45:32;;;;;;;10.80;5.90;;;;;;;;;;5131437;27;20031;-77
2022/02/12 04:47:57;;;;;;;8.83;5.80;;;;;;;;;;5133392;27;20031;-78
2022/02/12 04:50:22;;;;;;;7.80;4.97;;;;;;;;;;5134095;27;20178;-79
2022/02/12 04:52:48;;;;;;;8.60;5.10;;;;;;;;;;5133226;27;20133;-78
2022/02/12 04:55:14;;;;;;;9.00;5.27;;;;;;;;;;5132703;27;20092;-78
2022/02/12 04:57:39;;;;;;;9.40;5.27;;;;;;;;;;5114933;27;20031;-78
2022/02/12 05:00:05;;;;;;;8.47;5.23;;;;;;;;;;5134552;27;20023;-78
2022/02/12 05:02:30;;;;;;;9.67;5.13;;;;;;;;;;5116374;27;20370;-78
2022/02/12 05:04:55;;;;;;;10.33;5.10;;;;;;;;;;5135442;27;20031;-78
2022/02/12 05:07:21;;;;;;;9.03;5.37;;;;;;;;;;5133430;27;20075;-77
2022/02/12 05:09:46;;;;;;;10.77;5.60;;;;;;;;;;5134134;27;20072;-77
2022/02/12 05:12:11;;;;;;;10.47;5.80;;;;;;;;;;5133207;27;20077;-78
2022/02/12 05:14:36;;;;;;;9.57;5.00;;;;;;;;;;5129837;27;20030;-79
2022/02/12 05:17:02;;;;;;;9.53;5.40;;;;;;;;;;5132712;27;20156;-78
2022/02/12 05:19:27;;;;;;;8.53;5.10;;;;;;;;;;5132031;27;20019;-79
2022/02/12 05:21:53;;;;;;;11.03;4.83;;;;;;;;;;5113963;27;20068;-78
2022/02/12 05:24:18;;;;;;;10.60;5.17;;;;;;;;;;5133963;27;20012;-77
2022/02/12 05:26:43;;;;;;;8.03;5.00;;;;;;;;;;5131766;27;20033;-77
2022/02/12 05:29:08;;;;;;;10.50;4.90;;;;;;;;;;5129282;27;20037;-77
2022/02/12 05:31:34;;;;;;;9.50;4.97;;;;;;;;;;5132453;27;20035;-78
2022/02/12 05:33:59;;;;;;;9.43;4.70;;;;;;;;;;5132960;27;20500;-79
2022/02/12 05:36:24;;;;;;;7.97;4.93;;;;;;;;;;5132712;27;20023;-78
2022/02/12 05:38:49;;;;;;;9.10;4.50;;;;;;;;;;5113406;27;20088;-78
2022/02/12 05:41:15;;;;;;;7.57;4.57;;;;;;;;;;5133129;27;20434;-78
2022/02/12 05:43:40;;;;;;;10.60;5.47;;;;;;;;;;5133155;27;20031;-77
2022/02/12 05:46:06;;;;;;;9.67;5.20;;;;;;;;;;5132813;27;20089;-77
2022/02/12 05:48:31;;;;;;;10.33;4.80;;;;;;;;;;5133736;27;20457;-80
2022/02/12 05:50:56;;;;;;;8.93;5.63;;;;;;;;;;5133350;27;20535;-79
2022/02/12 05:53:22;;;;;;;8.83;4.80;;;;;;;;;;5133376;27;20437;-79
2022/02/12 05:55:47;;;;;;;9.57;4.77;;;;;;;;;;5130134;27;20020;-78
2022/02/12 05:58:12;;;;;;;9.80;5.07;;;;;;;;;;5132859;27;20031;-79
2022/02/12 06:00:38;;;;;;;10.07;5.17;;;;;;;;;;5133363;27;20363;-80
2022/02/12 06:03:03;;;;;;;9.90;5.47;;;;;;;;;;5135761;27;20024;-79
2022/02/12 06:05:28;;;;;;;12.30;5.20;;;;;;;;;;5135141;27;20033;-78
2022/02/12 06:07:54;;;;;;;8.80;5.13;;;;;;;;;;5114315;27;20070;-80
2022/02/12 06:10:21;;;;;;;7.50;4.63;;;;;;;;;;5134024;27;20374;-80
2022/02/12 06:12:46;;;;;;;10.47;5.23;;;;;;;;;;5132893;27;20144;-78
2022/02/12 06:15:11;;;;;;;8.23;4.93;;;;;;;;;;5133136;27;20106;-79
2022/02/12 06:17:36;;;;;;;12.03;5.17;;;;;;;;;;5133166;27;20219;-78
2022/02/12 06:20:03;;;;;;;11.67;5.23;;;;;;;;;;5132706;27;20034;-80
2022/02/12 06:22:29;;;;;;;8.23;4.73;;;;;;;;;;5132523;27;20058;-79
2022/02/12 06:24:55;;;;;;;8.83;4.77;;;;;;;;;;5132321;27;20378;-78
2022/02/12 06:27:21;;;;;;;9.77;5.03;;;;;;;;;;5130655;27;20058;-78
2022/02/12 06:29:46;;;;;;;8.83;4.70;;;;;;;;;;5132202;27;20071;-78
2022/02/12 06:32:11;;;;;;;10.17;4.80;;;;;;;;;;5130835;27;20027;-80
2022/02/12 06:34:38;;;;;;;9.60;5.70;;;;;;;;;;5132924;27;20026;-79
2022/02/12 06:37:04;;;;;;;9.70;5.43;;;;;;;;;;5131209;27;20377;-78
2022/02/12 06:39:29;;;;;;;9.87;5.43;;;;;;;;;;5131677;27;20089;-78
2022/02/12 06:41:54;;;;;;;10.57;5.33;;;;;;;;;;5128240;27;20071;-79
2022/02/12 06:44:19;;;;;;;9.67;5.80;;;;;;;;;;5130700;27;20015;-77
2022/02/12 06:46:45;;;;;;;10.13;5.57;;;;;;;;;;5132288;27;20027;-79
2022/02/12 06:49:10;;;;;;;8.13;5.20;;;;;;;;;;5134499;27;20731;-79
2022/02/12 06:51:36;;;;;;;9.27;5.67;;;;;;;;;;5135913;27;20015;-77
2022/02/12 06:54:01;;;;;;;11.60;5.83;;;;;;;;;;5131673;27;20027;-77
2022/02/12 06:56:26;;;;;;;10.07;5.20;;;;;;;;;;5131513;27;20023;-79
2022/02/12 06:58:51;;;;;;;10.08;5.40;;;;;;;;;;5134864;27;20031;-80
2022/02/12 07:01:17;;;;;;;9.90;5.10;;;;;;;;;;5132226;27;20015;-81
2022/02/12 07:03:42;;;;;;;10.73;5.27;;;;;;;;;;5134476;27;20099;-78
2022/02/12 07:06:07;;;;;;;11.87;5.60;;;;;;;;;;5132852;27;20072;-79
2022/02/12 07:08:32;;;;;;;10.73;5.43;;;;;;;;;;5132173;27;20027;-80
2022/02/12 07:10:57;;;;;;;10.87;5.83;;;;;;;;;;5120358;27;20471;-79
2022/02/12 07:13:23;;;;;;;8.93;5.20;;;;;;;;;;5134679;27;20385;-78
2022/02/12 07:15:48;;;;;;;9.68;5.44;;;;;;;;;;5130743;27;20034;-79
2022/02/12 07:18:13;;;;;;;10.30;6.67;;;;;;;;;;5131228;27;20031;-79
2022/02/12 07:20:38;;;;;;;8.60;5.60;;;;;;;;;;5131398;27;20023;-78
2022/02/12 07:23:03;;;;;;;9.90;5.80;;;;;;;;;;5130775;27;20039;-80
2022/02/12 07:25:29;;;;;;;11.53;5.87;;;;;;;;;;5131534;27;20048;-79
2022/02/12 07:27:57;;;;;;;12.20;6.17;;;;;;;;;;5130427;27;20035;-80
2022/02/12 07:30:22;;;;;;;13.70;6.67;;;;;;;;;;5130911;27;20119;-79
2022/02/12 07:32:48;;;;;;;12.37;6.70;;;;;;;;;;5130190;27;20052;-80
2022/02/12 07:35:13;;;;;;;10.00;6.47;;;;;;;;;;5131548;27;20023;-79
2022/02/12 07:37:39;;;;;;;12.53;7.83;;;;;;;;;;5131506;27;20389;-79
2022/02/12 07:40:05;;;;;;;13.00;6.63;;;;;;;;;;5114229;27;20455;-80
2022/02/12 07:42:30;;;;;;;9.50;6.17;;;;;;;;;;5112881;27;20103;-79
2022/02/12 07:44:56;;;;;;;9.83;6.17;;;;;;;;;;5130954;27;20492;-78
2022/02/12 07:47:21;;;;;;;12.77;6.13;;;;;;;;;;5112076;27;21606;-79
2022/02/12 07:49:46;;;;;;;10.37;5.87;;;;;;;;;;5129287;27;20042;-79
2022/02/12 07:52:11;;;;;;;10.87;6.30;;;;;;;;;;5131219;27;20108;-79
2022/02/12 07:54:37;;;;;;;11.87;5.77;;;;;;;;;;5111514;27;20023;-79
2022/02/12 07:57:02;;;;;;;11.93;6.83;;;;;;;;;;5131040;27;20026;-78
2022/02/12 07:59:27;;;;;;;10.57;6.30;;;;;;;;;;5115595;27;20019;-80
2022/02/12 08:01:52;;;;;;;10.97;6.60;;;;;;;;;;5128603;27;21778;-81
2022/02/12 08:04:18;;;;;;;12.17;6.40;;;;;;;;;;5130595;27;20456;-79
2022/02/12 08:09:27;;;;;;;12.93;6.40;;;;;;;;;;5131986;27;20087;-81
2022/02/12 08:12:01;;;;;;;10.80;6.23;;;;;;;;;;5135005;27;20445;-78
2022/02/12 08:14:27;;;;;;;10.70;6.47;;;;;;;;;;5129115;27;20026;-80
2022/02/12 08:16:52;;;;;;;10.52;5.45;;;;;;;;;;5134249;28;20023;-80
2022/02/12 08:19:17;;;;;;;11.33;5.53;;;;;;;;;;5132878;27;20373;-79
2022/02/12 08:21:42;;;;;;;10.90;6.18;;;;;;;;;;5132661;27;20086;-78
2022/02/12 08:24:09;;;;;;;9.83;5.60;;;;;;;;;;5133499;28;20035;-78
2022/02/12 08:26:34;;;;;;;10.35;6.07;;;;;;;;;;5135368;27;20011;-80
2022/02/12 08:29:00;;;;;;;9.27;6.00;;;;;;;;;;5137701;27;20110;-80
2022/02/12 08:31:25;;;;;;;9.83;5.93;;;;;;;;;;5133775;27;20076;-81
2022/02/12 08:33:50;;;;;;;9.38;5.97;;;;;;;;;;5135086;27;20260;-79
2022/02/12 08:36:16;;;;;;;12.02;6.10;;;;;;;;;;5132141;28;20027;-82
2022/02/12 08:38:41;;;;;;;10.93;6.00;;;;;;;;;;5133189;28;20084;-81
2022/02/12 08:41:06;;;;;;;12.10;5.93;;;;;;;;;;5120248;27;20525;-79
2022/02/12 08:43:34;;;;;;;11.07;5.20;;;;;;;;;;5134861;27;20046;-78
2022/02/12 08:45:59;;;;;;;8.30;5.45;;;;;;;;;;5130904;27;20465;-78
2022/02/12 08:48:27;;;;;;;11.13;6.03;;;;;;;;;;5129671;27;20038;-78
2022/02/12 08:50:52;;;;;;;9.48;6.18;;;;;;;;;;5130555;27;20030;-79
2022/02/12 08:53:17;;;;;;;9.38;5.72;;;;;;;;;;5130897;28;20556;-79
2022/02/12 08:55:43;;;;;;;10.13;6.88;;;;;;;;;;5130749;27;20023;-80
2022/02/12 08:58:08;;;;;;;9.68;5.20;;;;;;;;;;5131214;28;20030;-77
2022/02/12 09:00:33;;;;;;;12.70;6.63;;;;;;;;;;5129583;27;20509;-80
2022/02/12 09:02:58;;;;;;;10.00;5.82;;;;;;;;;;5131165;28;20477;-78
2022/02/12 09:05:23;;;;;;;9.93;5.45;;;;;;;;;;5130562;27;20106;-77
2022/02/12 09:07:49;;;;;;;8.88;4.70;;;;;;;;;;5118530;28;20114;-78
2022/02/12 09:10:14;;;;;;;9.85;4.85;;;;;;;;;;5135765;27;20054;-79
2022/02/12 09:12:39;;;;;;;10.63;4.30;;;;;;;;;;5130883;28;20023;-77
2022/02/12 09:15:04;;;;;;;8.98;4.43;;;;;;;;;;5129954;28;20477;-76
2022/02/12 09:17:29;;;;;;;8.88;4.10;;;;;;;;;;5131667;28;20038;-77
2022/02/12 09:19:58;;;;;;;6.93;4.10;;;;;;;;;;5131721;28;20023;-77
2022/02/12 09:22:23;;;;;;;8.98;4.40;;;;;;;;;;5130813;28;20079;-76
2022/02/12 09:24:48;;;;;;;7.45;4.55;;;;;;;;;;5112886;28;20023;-78
2022/02/12 09:27:14;;;;;;;6.80;4.00;;;;;;;;;;5129167;28;20031;-76
2022/02/12 09:29:39;;;;;;;7.43;3.85;;;;;;;;;;5129342;28;20047;-76
2022/02/12 09:32:04;;;;;;;7.07;3.75;;;;;;;;;;5132200;27;20526;-75
2022/02/12 09:34:29;;;;;;;7.65;3.92;;;;;;;;;;5133753;27;20524;-78
2022/02/12 09:36:55;;;;;;;7.38;4.07;;;;;;;;;;5132853;27;20448;-75
2022/02/12 09:39:20;;;;;;;8.73;3.88;;;;;;;;;;5133453;27;20015;-76
2022/02/12 09:41:45;;;;;;;10.30;5.15;;;;;;;;;;5135538;27;20026;-75
2022/02/12 09:44:10;;;;;;;8.18;4.32;;;;;;;;;;5138277;27;20031;-75
2022/02/12 09:47:01;;;;;;;10.70;3.97;;;;;;;;;;5137962;27;20019;-74
2022/02/12 09:49:27;;;;;;;7.68;3.90;;;;;;;;;;5120762;27;20062;-78
2022/02/12 09:51:52;;;;;;;8.20;3.78;;;;;;;;;;5133883;27;20075;-78
2022/02/12 09:54:18;;;;;;;8.52;3.42;;;;;;;;;;5134745;27;20015;-79
2022/02/12 09:56:43;;;;;;;6.55;4.00;;;;;;;;;;5134790;27;20160;-79
2022/02/12 09:59:09;;;;;;;7.43;4.10;;;;;;;;;;5135439;27;20060;-80
2022/02/12 10:01:37;;;;;;;6.15;3.20;;;;;;;;;;5131805;27;20080;-76
2022/02/12 10:04:02;;;;;;;5.20;3.08;;;;;;;;;;5130844;27;20107;-79
2022/02/12 10:06:38;;;;;;;8.95;3.15;;;;;;;;;;5131997;27;20082;-79
2022/02/12 10:09:04;;;;;;;6.35;3.13;;;;;;;;;;5136428;27;20025;-77
2022/02/12 10:11:38;;;;;;;7.38;3.33;;;;;;;;;;5133375;27;20026;-78
2022/02/12 10:14:07;;;;;;;6.90;2.75;;;;;;;;;;5133522;27;20019;-78
2022/02/12 10:16:52;;;;;;;4.80;2.83;;;;;;;;;;5118387;27;20121;-81
2022/02/12 10:19:18;;;;;;;6.43;2.70;;;;;;;;;;5129765;27;20027;-80
2022/02/12 10:22:02;;;;;;;4.47;2.40;;;;;;;;;;5119698;27;20135;-78
2022/02/12 10:24:45;;;;;;;6.40;2.58;;;;;;;;;;5134814;27;20424;-79
2022/02/12 10:27:11;;;;;;;4.10;2.25;;;;;;;;;;5128555;27;20185;-78
2022/02/12 10:29:36;;;;;;;5.38;2.50;;;;;;;;;;5132214;27;20098;-78
2022/02/12 10:32:01;;;;;;;4.85;2.20;;;;;;;;;;5132356;27;20015;-78
2022/02/12 10:34:36;;;;;;;4.07;2.22;;;;;;;;;;5128944;27;20023;-83
2022/02/12 10:37:02;;;;;;;5.28;2.17;;;;;;;;;;5137683;27;20030;-85
2022/02/12 10:39:27;;;;;;;5.07;2.00;;;;;;;;;;5131842;27;20023;-81
2022/02/12 10:42:05;;;;;;;5.62;2.18;;;;;;;;;;5129886;27;20925;-81
2022/02/12 10:44:31;;;;;;;5.70;2.20;;;;;;;;;;5130154;27;20162;-79
2022/02/12 10:46:56;;;;;;;4.80;2.22;;;;;;;;;;5130414;27;20593;-81
2022/02/12 10:49:25;;;;;;;5.55;2.10;;;;;;;;;;5133123;27;20098;-79
2022/02/12 10:51:51;;;;;;;4.63;2.20;;;;;;;;;;5129605;27;20031;-77
2022/02/12 10:54:19;;;;;;;4.95;1.88;;;;;;;;;;5133490;27;20023;-78
2022/02/12 10:56:52;;;;;;;6.25;2.67;;;;;;;;;;5135713;27;20036;-77
2022/02/12 10:59:19;;;;;;;7.47;3.05;;;;;;;;;;5132715;27;20490;-78
2022/02/12 11:01:44;;;;;;;4.40;2.30;;;;;;;;;;5131255;27;20053;-78
2022/02/12 11:04:10;;;;;;;3.92;2.20;;;;;;;;;;5133459;27;20038;-77
2022/02/12 11:06:35;;;;;;;4.07;1.90;;;;;;;;;;5132620;27;20494;-79
2022/02/12 11:09:01;;;;;;;5.75;2.20;;;;;;;;;;5132524;27;20038;-79
2022/02/12 11:11:26;;;;;;;5.28;2.60;;;;;;;;;;5129143;27;20087;-79
2022/02/12 11:13:52;;;;;;;3.03;1.80;;;;;;;;;;5132852;27;20031;-80
2022/02/12 11:16:17;;;;;;;6.03;2.38;;;;;;;;;;5132797;27;20019;-81
2022/02/12 11:18:43;;;;;;;3.78;1.98;;;;;;;;;;5133129;27;20367;-81
2022/02/12 11:21:08;;;;;;;4.38;1.83;;;;;;;;;;5129661;27;20034;-81
2022/02/12 11:23:33;;;;;;;3.35;1.95;;;;;;;;;;5132735;27;20017;-80
2022/02/12 11:26:20;;;;;;;3.47;1.73;;;;;;;;;;5131398;27;20039;-80
2022/02/12 11:28:45;;;;;;;3.78;2.10;;;;;;;;;;5119235;27;20042;-80
2022/02/12 11:31:15;;;;;;;3.17;2.05;;;;;;;;;;5114265;27;20027;-79
2022/02/12 11:34:00;;;;;;;4.75;2.28;;;;;;;;;;5137242;27;20031;-80
2022/02/12 11:36:26;;;;;;;6.10;2.30;;;;;;;;;;5133523;27;20031;-80
2022/02/12 11:39:03;;;;;;;4.75;1.98;;;;;;;;;;5114646;27;20129;-80
2022/02/12 11:41:28;;;;;;;3.60;2.08;;;;;;;;;;5127982;27;20019;-80
2022/02/12 11:43:54;;;;;;;3.40;1.98;;;;;;;;;;5132784;27;20800;-80
2022/02/12 11:46:38;;;;;;;2.75;1.60;;;;;;;;;;5132137;27;20042;-81
2022/02/12 11:49:22;;;;;;;4.78;1.83;;;;;;;;;;5128434;27;20034;-78
2022/02/12 11:51:47;;;;;;;2.95;1.70;;;;;;;;;;5131180;27;20366;-81
2022/02/12 11:54:32;;;;;;;3.53;1.67;;;;;;;;;;5132218;27;20019;-80
2022/02/12 11:56:57;;;;;;;4.03;1.75;;;;;;;;;;5134675;27;20023;-81
2022/02/12 11:59:23;;;;;;;4.93;2.00;;;;;;;;;;5115702;27;20047;-79
2022/02/12 12:01:50;;;;;;;4.20;2.22;;;;;;;;;;5141357;27;20027;-81
2022/02/12 12:04:21;;;;;;;5.70;2.15;;;;;;;;;;5134271;27;20019;-81
2022/02/12 12:06:59;;;;;;;4.65;2.03;;;;;;;;;;5115081;27;20433;-80
2022/02/12 12:09:31;;;;;;;5.20;1.98;;;;;;;;;;5107739;28;20043;-80
2022/02/12 12:12:26;;;;;;;3.25;1.92;;;;;;;;;;5133056;27;20087;-79
2022/02/12 12:14:54;;;;;;;3.88;2.10;;;;;;;;;;5027523;28;20073;-80
2022/02/12 12:17:32;;;;;;;2.70;1.75;;;;;;;;;;5030050;28;20037;-80
2022/02/12 12:19:57;;;;;;;3.78;1.65;;;;;;;;;;5030503;28;20068;-81
2022/02/12 12:22:24;;;;;;;4.48;2.14;;;;;;;;;;5030535;28;20033;-81
2022/02/12 12:24:57;;;;;;;3.15;1.83;;;;;;;;;;5026692;28;20033;-82
2022/02/12 12:27:22;;;;;;;5.75;2.40;;;;;;;;;;5027945;28;20112;-78
2022/02/12 12:32:31;;;;;;;4.90;2.42;;;;;;;;;;5021384;28;20132;-77
2022/02/12 12:35:06;;;;;;;5.05;2.40;;;;;;;;;;5023516;28;20034;-76
2022/02/12 12:37:33;;;;;;;3.55;2.00;;;;;;;;;;5026471;28;20107;-75
2022/02/12 12:39:58;;;;;;;4.88;2.28;;;;;;;;;;5026391;28;20472;-76
2022/02/12 12:42:25;;;;;;;5.13;2.28;;;;;;;;;;5026953;28;20030;-76
2022/02/12 12:44:58;;;;;;;4.63;2.17;;;;;;;;;;5003902;28;20061;-77
2022/02/12 12:47:23;;;;;;;4.22;2.28;;;;;;;;;;5020518;28;20036;-75
2022/02/12 12:49:52;;;;;;;5.10;2.47;;;;;;;;;;5027653;28;20112;-74
2022/02/12 12:52:21;;;;;;;3.88;2.03;;;;;;;;;;5118730;27;20063;-76
2022/02/12 12:54:46;;;;;;;5.50;2.20;;;;;;;;;;5112328;28;20106;-78
2022/02/12 12:57:12;;;;;;;3.88;2.10;;;;;;;;;;5128443;28;20094;-75
2022/02/12 12:59:53;;;;;;;4.40;2.33;;;;;;;;;;5128868;28;20123;-77
2022/02/12 13:02:20;;;;;;;3.30;2.03;;;;;;;;;;5128591;28;20300;-77
2022/02/12 13:04:53;;;;;;;6.22;2.20;;;;;;;;;;5126184;27;20019;-77
2022/02/12 13:07:18;;;;;;;5.35;2.30;;;;;;;;;;5126863;27;20473;-75
2022/02/12 13:09:44;;;;;;;3.75;2.20;;;;;;;;;;5133973;27;20119;-76
2022/02/12 13:12:29;;;;;;;4.03;2.13;;;;;;;;;;5134209;27;20022;-77
2022/02/12 13:14:55;;;;;;;4.25;2.40;;;;;;;;;;5129361;27;20063;-75
2022/02/12 13:17:20;;;;;;;7.68;2.05;;;;;;;;;;5132383;27;20067;-77
2022/02/12 13:19:47;;;;;;;3.80;2.20;;;;;;;;;;5131938;27;20063;-74
2022/02/12 13:22:13;;;;;;;3.15;2.10;;;;;;;;;;5134067;27;20102;-75
2022/02/12 13:24:39;;;;;;;3.45;1.92;;;;;;;;;;5137668;27;20029;-76
2022/02/12 13:27:05;;;;;;;4.60;2.33;;;;;;;;;;5133904;27;20023;-77
2022/02/12 13:29:32;;;;;;;4.88;2.20;;;;;;;;;;5133563;27;20023;-77
2022/02/12 13:32:04;;;;;;;4.00;2.38;;;;;;;;;;5132347;27;20035;-75
2022/02/12 13:34:30;;;;;;;6.03;2.53;;;;;;;;;;5134206;27;20110;-77
2022/02/12 13:36:56;;;;;;;6.57;2.60;;;;;;;;;;5132217;27;20118;-75
2022/02/12 13:39:21;;;;;;;4.28;2.53;;;;;;;;;;5126112;27;20019;-74
2022/02/12 13:41:47;;;;;;;4.68;2.67;;;;;;;;;;5129958;27;20038;-76
2022/02/12 13:44:12;;;;;;;4.65;2.40;;;;;;;;;;5132168;27;20073;-76
2022/02/12 13:46:40;;;;;;;4.40;2.63;;;;;;;;;;5132773;27;20450;-76
2022/02/12 13:49:18;;;;;;;4.47;2.67;;;;;;;;;;5131736;27;20051;-76
2022/02/12 13:51:56;;;;;;;6.38;2.65;;;;;;;;;;5132682;27;20029;-77
2022/02/12 13:54:22;;;;;;;5.55;2.40;;;;;;;;;;5124315;27;20047;-76
2022/02/12 13:56:51;;;;;;;5.63;2.53;;;;;;;;;;5130931;27;20061;-76
2022/02/12 13:59:16;;;;;;;3.33;2.20;;;;;;;;;;5132236;27;20027;-75
2022/02/12 14:01:41;;;;;;;6.30;2.38;;;;;;;;;;5130080;27;20377;-76
2022/02/12 14:04:06;;;;;;;5.10;2.40;;;;;;;;;;5128174;27;20076;-77
2022/02/12 14:06:32;;;;;;;6.15;2.50;;;;;;;;;;5131066;27;20137;-76
2022/02/12 14:09:00;;;;;;;6.82;2.40;;;;;;;;;;5126681;27;20035;-76
2022/02/12 14:11:27;;;;;;;4.32;2.10;;;;;;;;;;5130196;27;20212;-76
2022/02/12 14:13:52;;;;;;;3.63;2.13;;;;;;;;;;5130721;27;20043;-76
2022/02/12 14:16:17;;;;;;;5.72;2.30;;;;;;;;;;5128664;27;20427;-76
2022/02/12 14:18:42;;;;;;;5.07;2.43;;;;;;;;;;5128866;27;20054;-78
2022/02/12 14:21:08;;;;;;;4.93;2.30;;;;;;;;;;5130564;27;20303;-76
2022/02/12 14:23:33;;;;;;;3.78;2.30;;;;;;;;;;5130718;27;20358;-76
2022/02/12 14:25:59;;;;;;;5.38;2.47;;;;;;;;;;5131001;27;20484;-75
2022/02/12 14:28:25;;;;;;;4.97;2.40;;;;;;;;;;5131000;27;20122;-76
2022/02/12 14:30:50;;;;;;;4.30;2.40;;;;;;;;;;5130524;27;20108;-75
2022/02/12 14:33:16;;;;;;;4.38;1.95;;;;;;;;;;5131541;27;20019;-76
2022/02/12 14:35:42;;;;;;;5.07;2.03;;;;;;;;;;5130566;27;20023;-73
2022/02/12 14:38:08;;;;;;;3.70;2.15;;;;;;;;;;5130485;27;20030;-75
2022/02/12 14:40:33;;;;;;;4.13;1.80;;;;;;;;;;5130834;27;20015;-76
2022/02/12 14:43:00;;;;;;;3.60;2.17;;;;;;;;;;5131600;27;20172;-74
2022/02/12 14:45:26;;;;;;;3.80;2.20;;;;;;;;;;5125641;27;20728;-75